Time;durP1;ratioP1;P1;durP2;ratioP2;P2;SDS_P1;SDS_P2;PMS_P1;PMS_P2;Temp;Humidity;BMP_temperature;BMP_pressure;BME280_temperature;BME280_humidity;BME280_pressure;Samples;Min_cycle;Max_cycle;Signal;HPM_P1;HPM_P2
2022/06/01 00:01:16;;;;;;;5.20;2.85;;;;;;;7.64;100.00;101230.38;5043071;28;20028;-81
2022/06/01 00:03:42;;;;;;;4.88;2.47;;;;;;;7.62;100.00;101234.19;5002379;28;20030;-82
2022/06/01 00:06:09;;;;;;;6.95;2.47;;;;;;;7.46;100.00;101208.88;5026773;28;20029;-81
2022/06/01 00:08:35;;;;;;;5.93;2.60;;;;;;;7.56;100.00;101226.75;5038775;28;20037;-81
2022/06/01 00:11:01;;;;;;;5.97;2.72;;;;;;;7.50;100.00;101230.84;5031220;28;20025;-81
2022/06/01 00:13:27;;;;;;;3.80;2.33;;;;;;;7.38;100.00;101223.94;5003040;28;20064;-81
2022/06/01 00:15:54;;;;;;;6.47;2.45;;;;;;;7.32;100.00;101225.38;5025121;28;20037;-80
2022/06/01 00:18:20;;;;;;;7.22;2.83;;;;;;;7.36;100.00;101232.13;5025192;28;20116;-80
2022/06/01 00:20:46;;;;;;;8.88;2.47;;;;;;;7.40;100.00;101235.38;5041788;28;20025;-81
2022/06/01 00:23:12;;;;;;;5.70;2.60;;;;;;;7.42;100.00;101222.69;5043364;28;20041;-81
2022/06/01 00:25:37;;;;;;;7.35;3.33;;;;;;;7.49;100.00;101223.81;5005680;28;20529;-81
2022/06/01 00:28:03;;;;;;;8.85;3.10;;;;;;;7.49;100.00;101216.63;4990347;28;20022;-82
2022/06/01 00:30:29;;;;;;;6.82;2.90;;;;;;;7.57;100.00;101223.06;5022430;28;20071;-82
2022/06/01 00:32:57;;;;;;;9.18;3.05;;;;;;;7.56;100.00;101211.53;5023816;28;20481;-81
2022/06/01 00:35:24;;;;;;;8.77;3.50;;;;;;;7.60;100.00;101212.94;5043203;28;20124;-82
2022/06/01 00:37:50;;;;;;;7.22;3.00;;;;;;;7.47;100.00;101205.22;5024372;28;20033;-82
2022/06/01 00:40:18;;;;;;;4.95;2.63;;;;;;;7.49;100.00;101226.50;5012328;28;20375;-81
2022/06/01 00:42:45;;;;;;;6.07;2.55;;;;;;;7.41;100.00;101220.97;5018365;28;20018;-82
2022/06/01 00:45:14;;;;;;;7.95;2.90;;;;;;;7.45;100.00;101223.25;5042626;28;20037;-81
2022/06/01 00:47:39;;;;;;;5.93;2.75;;;;;;;7.48;100.00;101228.28;5038957;28;20026;-80
2022/06/01 00:50:16;;;;;;;4.82;2.65;;;;;;;7.33;100.00;101192.31;5042202;28;20079;-80
2022/06/01 00:52:49;;;;;;;5.63;3.10;;;;;;;7.57;100.00;101220.38;5026269;28;20077;-81
2022/06/01 00:55:34;;;;;;;6.50;3.00;;;;;;;7.32;100.00;101168.38;4994774;28;20460;-80
2022/06/01 00:58:04;;;;;;;6.88;3.30;;;;;;;7.56;100.00;101205.34;5013497;28;20041;-80
2022/06/01 01:00:33;;;;;;;6.40;3.17;;;;;;;7.58;100.00;101214.91;5004941;28;20113;-82
2022/06/01 01:03:04;;;;;;;6.72;3.20;;;;;;;7.55;100.00;101203.66;5027555;28;20026;-80
2022/06/01 01:05:33;;;;;;;7.93;3.50;;;;;;;7.33;100.00;101188.75;5004774;28;20037;-81
2022/06/01 01:08:03;;;;;;;4.80;2.70;;;;;;;7.24;100.00;101210.03;5026004;28;20025;-81
2022/06/01 01:10:28;;;;;;;6.10;2.90;;;;;;;6.94;100.00;101208.38;4988528;28;20065;-80
2022/06/01 01:12:59;;;;;;;13.05;3.45;;;;;;;6.66;100.00;101195.84;5022392;28;20049;-81
2022/06/01 01:15:55;;;;;;;10.68;3.25;;;;;;;6.64;100.00;101217.34;5005801;28;20037;-80
2022/06/01 01:18:30;;;;;;;7.30;3.08;;;;;;;6.52;100.00;101226.50;5034088;28;20029;-80
2022/06/01 01:21:02;;;;;;;7.13;3.10;;;;;;;6.41;100.00;101229.28;5021519;28;20049;-80
2022/06/01 01:23:32;;;;;;;6.68;2.92;;;;;;;6.29;100.00;101228.56;5022581;28;20022;-83
2022/06/01 01:25:58;;;;;;;6.07;3.00;;;;;;;6.01;100.00;101198.97;5026445;28;20079;-82
2022/06/01 01:28:24;;;;;;;5.85;3.10;;;;;;;5.84;100.00;101197.72;5022282;28;20529;-80
2022/06/01 01:31:20;;;;;;;7.88;2.92;;;;;;;5.79;100.00;101215.97;5033514;28;20100;-80
2022/06/01 01:33:47;;;;;;;4.72;2.85;;;;;;;5.67;100.00;101206.38;5015505;28;20072;-81
2022/06/01 01:36:15;;;;;;;7.57;3.03;;;;;;;5.79;100.00;101209.78;5000513;28;20138;-81
2022/06/01 01:38:45;;;;;;;5.50;2.75;;;;;;;5.79;100.00;101199.13;4992272;28;20068;-82
2022/06/01 01:41:23;;;;;;;4.60;2.97;;;;;;;6.03;100.00;101221.00;5025551;28;20030;-81
2022/06/01 01:43:55;;;;;;;6.00;2.88;;;;;;;5.99;100.00;101211.59;5015287;28;20570;-80
2022/06/01 01:46:21;;;;;;;8.93;3.22;;;;;;;5.89;100.00;101198.19;5008771;28;20064;-81
2022/06/01 01:48:47;;;;;;;6.45;2.50;;;;;;;5.96;100.00;101203.88;5027292;28;20053;-79
2022/06/01 01:51:12;;;;;;;7.85;3.08;;;;;;;6.00;100.00;101207.94;5029433;28;20072;-80
2022/06/01 01:53:39;;;;;;;11.85;3.28;;;;;;;5.98;100.00;101215.25;5025201;28;20493;-81
2022/06/01 01:56:22;;;;;;;6.07;2.97;;;;;;;5.90;100.00;101212.34;5037034;28;20090;-80
2022/06/01 01:59:16;;;;;;;6.30;3.13;;;;;;;5.83;100.00;101208.56;5034595;28;20028;-81
2022/06/01 02:02:40;;;;;;;6.95;2.97;;;;;;;5.83;100.00;101211.22;5039044;28;20471;-80
2022/06/01 02:08:25;;;;;;;5.10;2.58;;;;;;;5.73;100.00;101214.69;5023949;28;20175;-81
2022/06/01 02:13:37;;;;;;;7.38;3.33;;;;;;;5.97;100.00;101212.72;5022619;28;20033;-82
2022/06/01 02:16:04;;;;;;;6.07;2.78;;;;;;;6.00;100.00;101189.25;5018091;28;20029;-81
2022/06/01 02:18:38;;;;;;;6.78;3.15;;;;;;;6.21;100.00;101218.53;4991038;28;20037;-81
2022/06/01 02:21:30;;;;;;;10.85;3.00;;;;;;;6.21;100.00;101215.03;4991366;28;20099;-80
2022/06/01 02:23:59;;;;;;;5.47;2.83;;;;;;;6.23;100.00;101218.44;5035396;28;20459;-83
2022/06/01 02:26:25;;;;;;;9.20;2.95;;;;;;;6.15;100.00;101206.59;5029807;28;20071;-80
2022/06/01 02:29:02;;;;;;;8.68;3.40;;;;;;;6.09;100.00;101193.78;5043149;28;20029;-83
2022/06/01 02:31:29;;;;;;;7.32;3.20;;;;;;;6.16;100.00;101207.44;5005778;28;20468;-81
2022/06/01 02:33:54;;;;;;;7.85;3.45;;;;;;;6.15;100.00;101206.59;5012290;28;20080;-81
2022/06/01 02:36:21;;;;;;;6.80;3.45;;;;;;;6.19;100.00;101199.13;5025083;28;20033;-81
2022/06/01 02:38:50;;;;;;;6.70;3.60;;;;;;;6.30;100.00;101212.41;5015332;28;20429;-81
2022/06/01 02:44:01;;;;;;;10.32;3.65;;;;;;;6.33;100.00;101203.28;5025124;28;20055;-80
2022/06/01 02:46:27;;;;;;;8.63;3.50;;;;;;;6.38;100.00;101209.03;5031991;28;20021;-80
2022/06/01 02:48:53;;;;;;;8.40;3.60;;;;;;;6.46;100.00;101216.38;5004655;28;20482;-80
2022/06/01 02:51:19;;;;;;;10.02;3.40;;;;;;;6.50;100.00;101217.78;5039615;28;20561;-80
2022/06/01 02:53:45;;;;;;;7.63;3.45;;;;;;;6.54;100.00;101216.53;5014950;28;20045;-80
2022/06/01 02:56:12;;;;;;;8.85;3.33;;;;;;;6.54;100.00;101211.19;4995470;28;20479;-81
2022/06/01 02:58:38;;;;;;;9.27;3.55;;;;;;;6.49;100.00;101197.41;5006141;28;20452;-84
2022/06/01 03:01:04;;;;;;;7.05;3.05;;;;;;;6.55;100.00;101215.53;5003901;28;20044;-81
2022/06/01 03:03:30;;;;;;;9.13;3.30;;;;;;;6.58;100.00;101215.25;5020476;28;20042;-80
2022/06/01 03:05:56;;;;;;;9.52;3.22;;;;;;;6.63;100.00;101220.19;4987601;28;20018;-82
2022/06/01 03:08:22;;;;;;;8.73;3.50;;;;;;;6.69;100.00;101223.13;5008651;28;20041;-80
2022/06/01 03:10:48;;;;;;;7.10;3.83;;;;;;;6.75;100.00;101217.25;5026099;28;20028;-80
2022/06/01 03:13:14;;;;;;;6.68;3.45;;;;;;;6.78;100.00;101216.13;5039428;28;20086;-81
2022/06/01 03:15:40;;;;;;;9.48;4.10;;;;;;;6.82;100.00;101215.69;5028470;28;20041;-81
2022/06/01 03:18:05;;;;;;;9.05;3.88;;;;;;;6.78;100.00;101216.13;5024371;28;20029;-80
2022/06/01 03:20:33;;;;;;;9.93;3.72;;;;;;;6.75;100.00;101208.41;5027976;28;20476;-81
2022/06/01 03:22:59;;;;;;;13.07;3.83;;;;;;;6.68;100.00;101213.44;5004578;28;20525;-81
2022/06/01 03:25:27;;;;;;;8.45;3.72;;;;;;;6.52;100.00;101202.47;5011413;28;20305;-85
2022/06/01 03:27:55;;;;;;;7.68;3.55;;;;;;;6.46;100.00;101213.72;5007069;28;20134;-80
2022/06/01 03:30:22;;;;;;;6.72;2.90;;;;;;;6.43;100.00;101219.28;5010321;28;20386;-81
2022/06/01 03:32:48;;;;;;;11.23;3.78;;;;;;;6.35;100.00;101211.97;5018796;28;20050;-81
2022/06/01 03:35:16;;;;;;;8.90;3.45;;;;;;;6.32;100.00;101214.91;5019570;28;20080;-80
2022/06/01 03:37:41;;;;;;;9.25;3.35;;;;;;;6.21;100.00;101207.03;5023805;28;20030;-81
2022/06/01 03:40:08;;;;;;;8.18;3.90;;;;;;;6.26;100.00;101218.16;5022627;28;20025;-80
2022/06/01 03:42:34;;;;;;;10.80;4.00;;;;;;;5.97;100.00;101197.53;4995026;28;20025;-81
2022/06/01 03:47:45;;;;;;;8.27;3.50;;;;;;;5.88;100.00;101225.84;4987951;28;20044;-81
2022/06/01 03:50:12;;;;;;;7.75;3.25;;;;;;;5.77;100.00;101223.28;5028795;28;20029;-81
2022/06/01 03:52:38;;;;;;;7.95;3.30;;;;;;;5.61;100.00;101222.91;5010447;28;20037;-81
2022/06/01 03:55:08;;;;;;;7.35;2.90;;;;;;;5.57;100.00;101226.81;5018794;28;20041;-85
2022/06/01 03:57:35;;;;;;;6.85;3.35;;;;;;;5.57;100.00;101221.47;5030190;28;20033;-81
2022/06/01 04:00:02;;;;;;;11.15;3.60;;;;;;;5.68;100.00;101224.91;5005324;28;20027;-82
2022/06/01 04:02:27;;;;;;;6.57;3.30;;;;;;;5.80;100.00;101227.50;5023153;28;20040;-80
2022/06/01 04:04:53;;;;;;;10.15;3.30;;;;;;;5.76;100.00;101221.56;5013790;28;20079;-81
2022/06/01 04:07:18;;;;;;;7.00;3.17;;;;;;;5.64;100.00;101226.16;5044334;28;20067;-81
2022/06/01 04:09:45;;;;;;;7.20;3.53;;;;;;;5.54;100.00;101230.59;5038403;28;20053;-83
2022/06/01 04:12:10;;;;;;;9.18;3.55;;;;;;;5.55;100.00;101228.75;5013566;28;20037;-81
2022/06/01 04:14:36;;;;;;;11.40;3.30;;;;;;;5.60;100.00;101227.38;5042072;28;20037;-82
2022/06/01 04:17:02;;;;;;;8.75;3.60;;;;;;;5.54;100.00;101211.91;5013661;28;20463;-81
2022/06/01 04:19:27;;;;;;;6.60;3.45;;;;;;;5.59;100.00;101231.03;5022559;28;20387;-82
2022/06/01 04:21:53;;;;;;;7.47;3.72;;;;;;;5.47;100.00;101227.59;5021409;28;20468;-81
2022/06/01 04:24:23;;;;;;;10.38;3.75;;;;;;;5.47;100.00;101232.94;5021814;28;20348;-82
2022/06/01 04:26:49;;;;;;;9.23;3.60;;;;;;;5.36;100.00;101200.16;5000298;28;20033;-80
2022/06/01 04:29:15;;;;;;;11.52;4.25;;;;;;;5.59;100.00;101220.38;5040364;28;20091;-79
2022/06/01 04:31:41;;;;;;;7.40;3.42;;;;;;;5.86;100.00;101237.63;5043058;28;20032;-79
2022/06/01 04:34:06;;;;;;;10.55;3.90;;;;;;;6.04;100.00;101236.06;4988930;28;20520;-80
2022/06/01 04:36:32;;;;;;;9.45;3.80;;;;;;;6.22;100.00;101232.75;5015153;28;20021;-82
2022/06/01 04:38:58;;;;;;;10.70;5.03;;;;;;;6.37;100.00;101234.06;5028502;28;20025;-81
2022/06/01 04:41:24;;;;;;;10.13;4.00;;;;;;;6.57;100.00;101234.94;5036334;28;20075;-81
2022/06/01 04:43:49;;;;;;;11.00;4.72;;;;;;;6.66;100.00;101223.41;5002749;28;20409;-81
2022/06/01 04:46:15;;;;;;;10.77;3.88;;;;;;;6.92;100.00;101239.75;5023114;28;20021;-81
2022/06/01 04:48:40;;;;;;;7.57;4.10;;;;;;;7.11;100.00;101238.91;5019638;28;20029;-82
2022/06/01 04:51:06;;;;;;;9.20;4.63;;;;;;;7.18;100.00;101236.53;5022936;28;20377;-81
2022/06/01 04:53:32;;;;;;;12.10;3.92;;;;;;;7.16;100.00;101227.78;5021295;28;20296;-81
2022/06/01 04:55:58;;;;;;;11.60;4.60;;;;;;;7.25;100.00;101233.16;5019284;28;20073;-81
2022/06/01 04:58:23;;;;;;;12.93;4.45;;;;;;;7.21;100.00;101231.72;5011869;28;20075;-81
2022/06/01 05:00:49;;;;;;;11.18;4.32;;;;;;;7.24;100.00;101236.78;5037189;28;20065;-81
2022/06/01 05:03:15;;;;;;;8.43;4.03;;;;;;;7.24;100.00;101239.47;5027909;28;20025;-80
2022/06/01 05:05:41;;;;;;;9.70;4.47;;;;;;;7.41;100.00;101253.09;5025507;28;20021;-81
2022/06/01 05:08:11;;;;;;;15.48;4.32;;;;;;;7.69;100.00;101257.53;5013064;28;20104;-80
2022/06/01 05:10:39;;;;;;;10.35;5.07;;;;;;;8.10;100.00;101262.66;5022848;28;20055;-82
2022/06/01 05:13:05;;;;;;;9.75;4.40;;;;;;;7.81;100.00;101260.06;5025977;28;20030;-82
2022/06/01 05:15:31;;;;;;;10.75;3.78;;;;;;;7.58;100.00;101259.56;5046391;28;20022;-81
2022/06/01 05:17:57;;;;;;;5.90;3.88;;;;;;;7.39;100.00;101261.28;5005804;28;20037;-83
2022/06/01 05:20:23;;;;;;;9.02;3.75;;;;;;;7.29;100.00;101259.59;5032464;28;20044;-82
2022/06/01 05:22:48;;;;;;;8.23;4.25;;;;;;;7.18;100.00;101263.28;5005641;28;20041;-82
2022/06/01 05:25:14;;;;;;;14.13;3.45;;;;;;;7.06;100.00;101254.53;5008824;28;20280;-81
2022/06/01 05:27:40;;;;;;;7.15;4.10;;;;;;;7.07;100.00;101258.91;5033328;28;20344;-80
2022/06/01 05:30:07;;;;;;;9.70;3.95;;;;;;;8.27;100.00;101252.97;5027379;28;20025;-83
2022/06/01 05:32:33;;;;;;;11.15;4.45;;;;;;;9.55;100.00;101271.56;5029853;28;20072;-82
2022/06/01 05:34:59;;;;;;;8.05;4.03;;;;;;;9.60;100.00;101263.00;5021322;28;20050;-80
2022/06/01 05:37:24;;;;;;;7.72;3.45;;;;;;;9.25;100.00;101260.22;5026519;28;20085;-80
2022/06/01 05:39:51;;;;;;;8.27;3.80;;;;;;;9.24;100.00;101271.97;5027757;28;20087;-81
2022/06/01 05:42:17;;;;;;;10.25;3.95;;;;;;;9.86;100.00;101245.03;5024760;28;20105;-82
2022/06/01 05:44:44;;;;;;;10.05;4.15;;;;;;;11.32;98.15;101272.56;5015216;28;20128;-80
2022/06/01 05:47:09;;;;;;;7.55;3.72;;;;;;;12.19;93.05;101270.09;5042703;28;20022;-82
2022/06/01 05:49:35;;;;;;;8.13;3.72;;;;;;;12.65;90.72;101275.63;5025809;28;20025;-80
2022/06/01 05:52:01;;;;;;;5.43;3.25;;;;;;;12.84;88.97;101260.00;5032424;28;20071;-80
2022/06/01 05:54:27;;;;;;;9.07;3.67;;;;;;;13.06;86.26;101280.75;5024100;28;20036;-82
2022/06/01 05:56:52;;;;;;;4.10;2.72;;;;;;;13.03;84.44;101273.03;5027074;28;20041;-79
2022/06/01 05:59:18;;;;;;;4.22;2.90;;;;;;;13.05;85.16;101273.69;5029935;28;20026;-82
2022/06/01 06:01:43;;;;;;;8.10;3.70;;;;;;;13.23;83.61;101269.84;5032345;28;20474;-81
2022/06/01 06:04:09;;;;;;;6.88;2.70;;;;;;;13.20;82.79;101244.03;5040733;28;20033;-86
2022/06/01 06:06:35;;;;;;;5.25;3.30;;;;;;;13.78;80.81;101266.84;5049119;28;20391;-82
2022/06/01 06:09:06;;;;;;;6.78;3.40;;;;;;;14.31;78.08;101269.47;5029819;28;20033;-81
2022/06/01 06:11:34;;;;;;;5.10;2.85;;;;;;;14.49;76.86;101274.50;5048332;28;20082;-81
2022/06/01 06:14:00;;;;;;;5.85;3.08;;;;;;;15.51;75.59;101282.47;5003569;28;20076;-81
2022/06/01 06:16:33;;;;;;;4.82;2.58;;;;;;;16.57;70.08;101282.34;5040177;28;20867;-82
2022/06/01 06:18:58;;;;;;;7.93;2.80;;;;;;;17.10;67.20;101263.50;5043509;28;20460;-83
2022/06/01 06:21:25;;;;;;;5.65;2.40;;;;;;;17.46;64.72;101278.56;5028552;28;20037;-80
2022/06/01 06:23:51;;;;;;;5.18;2.83;;;;;;;17.68;62.19;101279.22;5011244;28;20034;-81
2022/06/01 06:26:17;;;;;;;4.18;2.33;;;;;;;17.83;60.25;101273.56;5014892;28;20033;-81
2022/06/01 06:28:44;;;;;;;3.88;2.45;;;;;;;18.09;58.79;101283.56;5039561;28;20046;-81
2022/06/01 06:31:10;;;;;;;4.80;2.30;;;;;;;18.27;57.00;101274.75;5008989;28;20033;-81
2022/06/01 06:33:35;;;;;;;3.33;2.05;;;;;;;18.17;56.88;101285.25;5004290;28;20049;-84
2022/06/01 06:36:04;;;;;;;3.42;1.70;;;;;;;18.46;56.67;101282.00;5025979;28;20037;-82
2022/06/01 06:38:32;;;;;;;2.97;2.20;;;;;;;18.55;55.64;101288.06;5023553;28;20084;-79
2022/06/01 06:40:58;;;;;;;2.25;1.70;;;;;;;18.90;53.96;101279.53;5025215;28;20029;-82
2022/06/01 06:43:26;;;;;;;3.35;1.90;;;;;;;19.25;52.55;101285.38;5024754;28;20037;-81
2022/06/01 06:45:56;;;;;;;5.15;2.03;;;;;;;19.67;50.73;101280.25;5025834;28;20021;-79
2022/06/01 06:48:21;;;;;;;4.10;2.05;;;;;;;20.06;50.91;101296.47;5042895;28;20048;-81
2022/06/01 06:50:47;;;;;;;2.40;1.60;;;;;;;20.40;47.24;101292.31;5026323;28;20352;-82
2022/06/01 06:53:13;;;;;;;4.65;1.52;;;;;;;20.69;48.23;101295.38;5023492;28;20101;-78
2022/06/01 06:55:39;;;;;;;4.78;1.50;;;;;;;21.21;45.20;101299.25;5011108;28;20049;-80
2022/06/01 06:58:09;;;;;;;1.90;1.30;;;;;;;21.56;43.25;101294.97;5020699;28;20352;-80
2022/06/01 07:00:35;;;;;;;1.45;1.10;;;;;;;21.58;42.89;101296.41;5011545;28;20447;-80
2022/06/01 07:03:00;;;;;;;1.42;1.08;;;;;;;21.35;42.60;101279.91;5026924;28;20063;-79
2022/06/01 07:08:10;;;;;;;1.30;1.00;;;;;;;22.02;40.63;101301.56;5024466;28;20032;-80
2022/06/01 07:10:35;;;;;;;1.75;1.08;;;;;;;22.13;40.67;101306.19;4997939;28;20041;-80
2022/06/01 07:13:01;;;;;;;1.95;1.00;;;;;;;22.41;40.78;101294.47;5024130;28;20044;-81
2022/06/01 07:15:26;;;;;;;1.40;0.90;;;;;;;22.87;37.84;101300.09;5020352;28;20026;-83
2022/06/01 07:17:52;;;;;;;0.80;0.80;;;;;;;22.85;38.11;101302.25;5018442;28;20116;-79
2022/06/01 07:20:18;;;;;;;1.15;0.77;;;;;;;22.70;37.89;101306.31;5023693;28;20025;-82
2022/06/01 07:22:44;;;;;;;1.55;0.90;;;;;;;22.85;38.17;101308.56;5009215;28;20040;-82
2022/06/01 07:25:10;;;;;;;2.67;0.95;;;;;;;22.89;38.22;101306.13;5029378;28;20033;-80
2022/06/01 07:27:36;;;;;;;1.42;0.90;;;;;;;23.27;36.04;101311.00;5031830;28;20090;-81
2022/06/01 07:30:06;;;;;;;2.00;1.33;;;;;;;23.42;37.61;101318.69;5007989;28;20136;-80
2022/06/01 07:32:32;;;;;;;1.50;1.00;;;;;;;23.85;36.43;101323.53;5024263;28;20017;-80
2022/06/01 07:34:58;;;;;;;1.10;1.00;;;;;;;23.86;36.42;101319.72;5026187;28;20024;-80
2022/06/01 07:43:07;;;;;;;0.98;0.88;;;;;;;24.60;33.45;101331.50;5025001;28;20033;-81
2022/06/01 07:45:35;;;;;;;0.98;0.80;;;;;;;24.95;34.16;101331.06;5029183;28;20047;-83
2022/06/01 07:48:02;;;;;;;0.98;0.90;;;;;;;25.22;32.61;101336.66;5022964;28;20148;-82
2022/06/01 07:50:28;;;;;;;2.03;1.92;;;;;;;25.49;33.38;101330.28;5046212;28;20040;-80
2022/06/01 07:52:53;;;;;;;1.30;1.08;;;;;;;25.49;31.87;101338.56;5021349;28;20026;-83
2022/06/01 07:55:19;;;;;;;1.58;1.20;;;;;;;25.73;32.79;101330.78;5024715;28;20024;-80
2022/06/01 07:57:45;;;;;;;1.27;1.10;;;;;;;26.91;30.92;101324.00;5007847;28;20025;-81
2022/06/01 08:00:11;;;;;;;17.88;16.23;;;;;;;27.60;29.23;101337.41;5021299;28;20052;-80
2022/06/01 08:02:38;;;;;;;1.17;0.82;;;;;;;27.14;29.53;101318.00;5022409;28;20048;-80
2022/06/01 08:05:07;;;;;;;1.00;0.95;;;;;;;26.72;30.24;101338.28;5022875;28;20061;-82
2022/06/01 08:07:36;;;;;;;1.48;1.00;;;;;;;27.29;28.11;101332.97;5008363;28;20033;-82
2022/06/01 08:10:03;;;;;;;1.13;0.90;;;;;;;27.22;28.43;101333.22;5046728;28;20148;-80
2022/06/01 08:15:15;;;;;;;1.08;0.98;;;;;;;27.06;29.68;101337.03;5026013;28;20033;-81
2022/06/01 08:17:44;;;;;;;0.88;0.85;;;;;;;28.29;27.72;101340.66;5013689;28;20029;-83
2022/06/01 08:20:12;;;;;;;0.85;0.60;;;;;;;27.72;25.84;101334.34;5009456;28;20064;-81
2022/06/01 08:22:40;;;;;;;1.00;0.60;;;;;;;25.13;31.09;101349.16;5046866;28;20052;-83
2022/06/01 08:25:08;;;;;;;3.00;0.73;;;;;;;25.52;31.09;101349.03;5010447;28;20034;-80
2022/06/01 08:27:33;;;;;;;0.77;0.70;;;;;;;27.17;27.88;101349.78;5002426;28;20025;-81
2022/06/01 08:29:59;;;;;;;0.40;0.40;;;;;;;25.34;29.74;101351.06;5041291;28;20047;-80
2022/06/01 08:32:25;;;;;;;2.00;0.60;;;;;;;22.65;33.83;101350.09;5002910;28;20028;-80
2022/06/01 08:34:50;;;;;;;0.88;0.70;;;;;;;20.31;37.54;101353.78;5024936;28;20029;-82
2022/06/01 08:37:16;;;;;;;1.88;0.60;;;;;;;18.59;42.29;101357.38;5022537;28;20463;-80
2022/06/01 08:39:42;;;;;;;2.08;0.60;;;;;;;17.88;44.94;101360.00;5025702;28;20080;-81
2022/06/01 08:42:11;;;;;;;0.65;0.60;;;;;;;16.87;46.30;101347.25;4992791;28;20069;-84
2022/06/01 08:44:39;;;;;;;2.03;0.80;;;;;;;15.95;49.06;101342.91;5032455;28;20083;-82
2022/06/01 08:47:08;;;;;;;5.13;0.80;;;;;;;15.44;51.94;101341.19;5012912;28;20025;-83
2022/06/01 08:49:35;;;;;;;1.00;0.60;;;;;;;15.43;53.11;101357.63;5005340;28;20033;-82
2022/06/01 08:52:01;;;;;;;2.25;0.93;;;;;;;16.16;52.65;101350.16;5029370;28;20371;-81
2022/06/01 08:54:27;;;;;;;0.90;0.70;;;;;;;16.41;50.74;101343.22;5045074;28;20041;-79
2022/06/01 08:57:16;;;;;;;1.15;0.75;;;;;;;17.43;48.59;101346.13;5046114;28;20052;-84
2022/06/01 08:59:59;;;;;;;0.60;0.60;;;;;;;16.56;49.14;101345.81;5027925;28;20084;-81
2022/06/01 09:02:34;;;;;;;1.90;1.50;;;;;;;18.47;46.19;101337.31;5027560;28;20119;-80
2022/06/01 09:05:21;;;;;;;1.08;0.90;;;;;;;21.85;38.34;101345.22;5012740;28;20406;-82
2022/06/01 09:07:52;;;;;;;0.80;0.60;;;;;;;22.06;36.63;101349.28;5034878;28;20424;-82
2022/06/01 09:10:31;;;;;;;1.80;1.20;;;;;;;22.79;36.77;101347.91;5029273;28;20044;-79
2022/06/01 09:13:03;;;;;;;1.00;0.90;;;;;;;25.54;31.53;101346.88;5026557;28;20030;-83
2022/06/01 09:15:35;;;;;;;1.20;1.10;;;;;;;27.24;30.15;101344.00;5020715;28;20042;-81
2022/06/01 09:18:01;;;;;;;1.10;1.00;;;;;;;28.99;27.48;101332.38;5006096;28;20032;-80
2022/06/01 09:23:14;;;;;;;0.90;0.90;;;;;;;30.75;23.78;101341.59;5029246;28;20029;-79
2022/06/01 09:25:50;;;;;;;1.73;1.10;;;;;;;31.33;22.88;101330.22;5005119;28;20029;-80
2022/06/01 09:28:24;;;;;;;2.65;2.55;;;;;;;31.78;21.76;101327.84;5004429;28;20026;-79
2022/06/01 09:31:03;;;;;;;0.50;0.50;;;;;;;30.41;22.97;101337.06;5026132;28;20028;-79
2022/06/01 09:33:34;;;;;;;0.80;0.70;;;;;;;27.39;27.44;101332.97;5035826;28;20207;-78
2022/06/01 09:36:00;;;;;;;0.73;0.60;;;;;;;24.96;30.36;101338.25;5003826;28;20033;-82
2022/06/01 09:38:48;;;;;;;2.90;0.70;;;;;;;22.70;34.10;101328.25;5023964;28;20155;-82
2022/06/01 09:41:19;;;;;;;0.80;0.60;;;;;;;21.16;35.86;101328.38;5022413;28;20071;-82
2022/06/01 09:43:58;;;;;;;0.80;0.70;;;;;;;20.11;38.54;101332.97;5010850;28;20013;-81
2022/06/01 09:46:37;;;;;;;3.40;1.88;;;;;;;19.33;40.92;101328.75;5036299;28;20191;-80
2022/06/01 09:49:25;;;;;;;1.27;0.70;;;;;;;18.68;41.27;101328.88;5032257;28;20022;-81
2022/06/01 09:52:00;;;;;;;0.75;0.70;;;;;;;18.53;43.00;101335.63;5040685;28;20088;-80
2022/06/01 09:54:36;;;;;;;1.08;0.80;;;;;;;18.63;42.44;101316.94;5010529;28;20034;-80
2022/06/01 09:57:17;;;;;;;0.60;0.60;;;;;;;18.76;42.73;101307.88;5004563;28;20462;-82
2022/06/01 10:08:22;;;;;;;4.40;1.40;;;;;;;18.74;42.39;101320.88;5043143;28;20028;-82
2022/06/01 10:11:05;;;;;;;6.10;1.40;;;;;;;18.86;41.79;101324.63;5042420;28;20021;-81
2022/06/01 10:13:34;;;;;;;1.08;0.80;;;;;;;18.83;42.54;101344.94;5042908;28;20025;-81
2022/06/01 10:16:12;;;;;;;1.25;0.70;;;;;;;19.07;42.02;101318.00;5024051;28;20053;-81
2022/06/01 10:18:39;;;;;;;3.05;0.80;;;;;;;19.59;39.98;101332.34;5012211;28;20033;-83
2022/06/01 10:21:08;;;;;;;0.80;0.80;;;;;;;20.79;37.75;101342.94;5013610;28;20379;-80
2022/06/01 10:23:40;;;;;;;1.20;1.10;;;;;;;25.29;31.28;101340.00;5015862;28;20060;-79
2022/06/01 10:26:31;;;;;;;1.23;1.13;;;;;;;28.86;25.72;101344.88;5023922;28;20029;-82
2022/06/01 10:29:07;;;;;;;0.68;0.68;;;;;;;28.55;24.73;101340.59;5019643;28;20071;-81
2022/06/01 10:31:39;;;;;;;0.60;0.60;;;;;;;26.45;27.47;101340.34;5029170;28;20038;-81
2022/06/01 10:34:11;;;;;;;1.10;0.80;;;;;;;24.84;28.94;101340.31;5013873;28;20063;-81
2022/06/01 10:36:45;;;;;;;2.70;0.80;;;;;;;23.20;32.03;101351.47;5023689;28;20065;-80
2022/06/01 10:39:24;;;;;;;1.95;0.80;;;;;;;22.04;34.51;101356.91;5028351;28;20033;-81
2022/06/01 10:42:16;;;;;;;0.77;0.70;;;;;;;21.77;33.89;101353.78;5007130;28;20021;-82
2022/06/01 10:44:46;;;;;;;1.10;0.90;;;;;;;21.86;35.02;101357.84;5008437;28;20072;-82
2022/06/01 10:47:29;;;;;;;0.60;0.60;;;;;;;22.27;34.15;101345.16;5007923;28;20034;-81
2022/06/01 10:50:06;;;;;;;1.35;0.95;;;;;;;23.62;32.06;101351.97;5031725;28;20362;-82
2022/06/01 10:52:40;;;;;;;1.55;1.33;;;;;;;25.30;29.94;101333.44;5023776;28;20067;-81
2022/06/01 10:55:26;;;;;;;0.90;0.90;;;;;;;26.85;26.55;101341.66;5027653;28;20017;-83
2022/06/01 10:57:52;;;;;;;0.68;0.68;;;;;;;27.76;25.62;101351.19;5032091;28;20021;-79
2022/06/01 11:00:26;;;;;;;1.33;0.80;;;;;;;26.81;25.79;101362.63;5044588;28;20029;-81
2022/06/01 11:03:31;;;;;;;1.02;0.93;;;;;;;28.89;25.09;101352.63;5025796;28;20052;-83
2022/06/01 11:06:13;;;;;;;1.48;0.75;;;;;;;29.44;23.68;101349.00;5027821;28;20489;-81
2022/06/01 11:08:38;;;;;;;1.00;0.80;;;;;;;29.86;23.64;101356.72;5032365;28;20040;-81
2022/06/01 11:11:10;;;;;;;1.20;1.10;;;;;;;29.26;23.84;101347.75;5025236;28;20017;-81
2022/06/01 11:14:02;;;;;;;0.93;0.70;;;;;;;27.71;25.03;101354.00;5036492;28;20029;-84
2022/06/01 11:16:40;;;;;;;56.97;6.95;;;;;;;24.77;29.31;101346.03;5025972;28;20064;-81
2022/06/01 11:19:27;;;;;;;12.57;2.40;;;;;;;22.80;32.55;101357.78;5026163;28;20030;-82
2022/06/01 11:21:56;;;;;;;44.88;5.68;;;;;;;22.07;33.99;101350.94;5025812;28;20037;-82
2022/06/01 11:24:31;;;;;;;94.00;13.93;;;;;;;21.66;35.31;101355.44;5024680;28;20091;-82
2022/06/01 11:27:15;;;;;;;78.70;10.68;;;;;;;21.38;36.31;101351.44;5026926;28;20025;-81
2022/06/01 11:29:53;;;;;;;7.25;1.60;;;;;;;22.28;35.97;101355.88;5020703;28;20026;-80
2022/06/01 11:32:23;;;;;;;1.70;1.20;;;;;;;27.57;27.91;101342.63;5023607;28;20108;-81
2022/06/01 11:35:05;;;;;;;1.48;1.30;;;;;;;29.81;24.82;101340.13;5041481;28;20037;-82
2022/06/01 11:37:35;;;;;;;1.95;0.80;;;;;;;27.51;25.86;101338.22;5026797;28;20030;-81
2022/06/01 11:40:25;;;;;;;1.08;0.98;;;;;;;27.97;25.67;101346.53;5003877;28;20032;-81
2022/06/01 11:43:02;;;;;;;1.33;1.00;;;;;;;30.79;21.86;101342.66;5020400;28;20494;-82
2022/06/01 11:45:33;;;;;;;1.80;1.33;;;;;;;32.06;21.30;101345.44;5010949;28;20032;-83
2022/06/01 11:48:08;;;;;;;1.10;1.00;;;;;;;32.78;20.71;101353.22;5026232;28;20181;-82
2022/06/01 11:50:57;;;;;;;1.45;0.95;;;;;;;33.68;20.43;101355.34;5026928;28;20363;-85
2022/06/01 11:53:35;;;;;;;1.45;1.35;;;;;;;34.22;18.79;101355.34;5012905;28;20245;-82
2022/06/01 11:56:22;;;;;;;1.20;1.02;;;;;;;33.96;19.07;101350.44;5018345;28;20237;-82
2022/06/01 11:59:23;;;;;;;1.48;1.00;;;;;;;34.26;18.82;101351.59;5004731;28;20053;-83
2022/06/01 12:02:01;;;;;;;;;;;;;;;33.71;18.65;101354.72;5031116;28;20486;-79
2022/06/01 12:04:39;;;;;;;0.65;0.65;;;;;;;34.86;16.83;101350.16;5042617;28;19948;-85
2022/06/01 12:07:31;;;;;;;1.25;0.95;;;;;;;31.36;19.78;101340.78;5025016;28;20025;-83
2022/06/01 12:10:03;;;;;;;0.80;0.80;;;;;;;29.88;22.51;101340.63;5021964;28;20036;-84
2022/06/01 12:12:32;;;;;;;1.92;1.00;;;;;;;29.34;24.01;101336.88;5011626;28;20052;-83